Time;durP1;ratioP1;P1;durP2;ratioP2;P2;SDS_P1;SDS_P2;PMS_P1;PMS_P2;Temp;Humidity;BMP_temperature;BMP_pressure;BME280_temperature;BME280_humidity;BME280_pressure;Samples;Min_cycle;Max_cycle;Signal;HPM_P1;HPM_P2
2023/07/22 00:02:25;;;;;;;0.80;0.60;;;17.70;99.90;;;;;;4991398;28;20213;-71
2023/07/22 00:04:53;;;;;;;0.70;0.70;;;17.80;99.90;;;;;;5010468;28;20205;-72
2023/07/22 00:07:21;;;;;;;1.33;1.23;;;17.70;99.90;;;;;;5003108;28;20209;-71
2023/07/22 00:09:49;;;;;;;1.08;0.98;;;17.60;99.90;;;;;;4999733;28;20229;-71
2023/07/22 00:12:17;;;;;;;0.82;0.60;;;17.60;99.90;;;;;;5002755;28;20224;-71
2023/07/22 00:14:45;;;;;;;1.10;0.93;;;17.60;99.90;;;;;;5000358;28;20204;-71
2023/07/22 00:17:14;;;;;;;0.90;0.75;;;17.60;99.90;;;;;;5007823;28;20206;-71
2023/07/22 00:19:43;;;;;;;0.70;0.68;;;17.60;99.90;;;;;;5002743;28;20297;-71
2023/07/22 00:22:11;;;;;;;0.80;0.80;;;17.50;99.90;;;;;;4994569;28;20213;-71
2023/07/22 00:24:39;;;;;;;0.70;0.68;;;17.50;99.90;;;;;;5003195;28;20213;-71
2023/07/22 00:27:08;;;;;;;1.50;0.60;;;17.50;99.90;;;;;;4995112;28;20237;-71
2023/07/22 00:29:36;;;;;;;1.08;0.52;;;17.50;99.90;;;;;;4994105;28;20712;-71
2023/07/22 00:32:07;;;;;;;0.60;0.60;;;17.50;99.90;;;;;;4994846;28;20205;-71
2023/07/22 00:34:36;;;;;;;0.70;0.63;;;17.50;99.90;;;;;;5010014;28;20208;-71
2023/07/22 00:37:04;;;;;;;0.80;0.70;;;17.40;99.90;;;;;;5008886;28;20202;-71
2023/07/22 00:39:32;;;;;;;0.90;0.60;;;17.40;99.90;;;;;;4993983;28;20217;-71
2023/07/22 00:42:00;;;;;;;0.60;0.60;;;17.30;99.90;;;;;;4995672;28;20201;-71
2023/07/22 00:44:28;;;;;;;0.80;0.70;;;17.30;99.90;;;;;;4998666;28;20247;-72
2023/07/22 00:46:58;;;;;;;1.00;0.60;;;17.40;99.90;;;;;;4996468;28;20210;-71
2023/07/22 00:49:27;;;;;;;0.70;0.65;;;17.30;99.90;;;;;;4977990;28;20329;-71
2023/07/22 00:52:01;;;;;;;1.13;1.02;;;17.30;99.90;;;;;;4995909;28;20281;-71
2023/07/22 00:54:29;;;;;;;0.80;0.60;;;17.20;99.90;;;;;;5011846;28;20215;-71
2023/07/22 00:56:57;;;;;;;0.60;0.50;;;17.20;99.90;;;;;;5003518;28;20556;-72
2023/07/22 00:59:26;;;;;;;0.80;0.73;;;17.20;99.90;;;;;;5004477;28;20226;-72
2023/07/22 01:01:54;;;;;;;0.70;0.60;;;17.30;99.90;;;;;;4995721;28;20652;-71
2023/07/22 01:04:24;;;;;;;0.88;0.73;;;17.30;99.90;;;;;;5009612;28;20244;-72
2023/07/22 01:06:53;;;;;;;0.90;0.80;;;17.40;99.90;;;;;;5004117;28;20211;-71
2023/07/22 01:09:23;;;;;;;0.90;0.70;;;17.50;99.90;;;;;;5001894;28;20272;-71
2023/07/22 01:11:51;;;;;;;0.65;0.60;;;17.40;99.90;;;;;;4993687;28;20214;-70
2023/07/22 01:14:18;;;;;;;0.75;0.75;;;17.50;99.90;;;;;;4993704;28;20220;-71
2023/07/22 01:16:46;;;;;;;0.60;0.47;;;17.50;99.90;;;;;;4994067;28;20316;-70
2023/07/22 01:19:18;;;;;;;0.70;0.50;;;17.30;99.90;;;;;;4993505;28;20234;-71
2023/07/22 01:21:47;;;;;;;0.90;0.60;;;17.20;99.90;;;;;;4993726;28;20206;-71
2023/07/22 01:24:17;;;;;;;0.70;0.63;;;17.10;99.90;;;;;;4993753;28;20325;-71
2023/07/22 01:26:45;;;;;;;0.80;0.80;;;17.10;99.90;;;;;;4995703;28;20209;-71
2023/07/22 01:29:13;;;;;;;0.60;0.55;;;17.10;99.90;;;;;;4993386;28;20209;-71
2023/07/22 01:31:41;;;;;;;0.90;0.63;;;17.10;99.90;;;;;;4993185;28;20229;-71
2023/07/22 01:34:09;;;;;;;0.90;0.80;;;17.10;99.90;;;;;;4999454;28;20217;-71
2023/07/22 01:36:37;;;;;;;0.70;0.60;;;17.10;99.90;;;;;;5011630;28;20670;-70
2023/07/22 01:39:06;;;;;;;0.60;0.50;;;17.10;99.90;;;;;;4997794;28;20662;-70
2023/07/22 01:41:36;;;;;;;0.70;0.50;;;17.00;99.90;;;;;;4996127;28;20696;-70
2023/07/22 01:44:04;;;;;;;0.82;0.70;;;17.00;99.90;;;;;;4993370;28;20660;-70
2023/07/22 01:46:32;;;;;;;1.00;0.90;;;17.00;99.90;;;;;;5000369;28;20579;-70
2023/07/22 01:49:01;;;;;;;0.70;0.50;;;17.00;99.90;;;;;;5002550;28;20614;-69
2023/07/22 01:51:29;;;;;;;0.70;0.60;;;17.00;99.90;;;;;;4962180;28;20234;-72
2023/07/22 01:53:57;;;;;;;0.90;0.77;;;16.90;99.90;;;;;;4965481;28;20206;-72
2023/07/22 01:56:25;;;;;;;0.90;0.60;;;16.80;99.90;;;;;;4958844;28;20211;-72
2023/07/22 01:58:55;;;;;;;1.42;0.60;;;16.80;99.90;;;;;;4972633;28;20298;-70
2023/07/22 02:01:23;;;;;;;0.80;0.70;;;16.70;99.90;;;;;;4959125;28;20214;-70
2023/07/22 02:03:51;;;;;;;1.05;0.70;;;16.70;99.90;;;;;;4961544;28;20215;-70
2023/07/22 02:06:19;;;;;;;1.10;1.00;;;16.60;99.90;;;;;;4954332;28;20222;-72
2023/07/22 02:08:47;;;;;;;0.70;0.68;;;16.50;99.90;;;;;;4954355;28;20662;-72
2023/07/22 02:11:15;;;;;;;0.95;0.95;;;16.40;99.90;;;;;;4954173;28;20234;-72
2023/07/22 02:13:43;;;;;;;0.65;0.57;;;16.40;99.90;;;;;;4963343;28;20207;-72
2023/07/22 02:16:12;;;;;;;2.00;1.02;;;16.50;99.90;;;;;;4973202;28;20626;-71
2023/07/22 02:18:40;;;;;;;1.10;1.00;;;16.50;99.90;;;;;;4973383;28;20221;-71
2023/07/22 02:21:08;;;;;;;0.70;0.70;;;16.50;99.90;;;;;;4960883;28;20706;-71
2023/07/22 02:23:36;;;;;;;0.90;0.73;;;16.40;99.90;;;;;;4965193;28;20210;-72
2023/07/22 02:26:04;;;;;;;1.27;1.02;;;16.40;99.90;;;;;;4962194;28;20207;-71
2023/07/22 02:28:32;;;;;;;1.10;1.00;;;16.40;99.90;;;;;;4953698;28;20211;-72
2023/07/22 02:31:06;;;;;;;0.60;0.50;;;16.50;99.90;;;;;;4956566;28;20588;-72
2023/07/22 02:33:35;;;;;;;1.05;0.88;;;16.50;99.90;;;;;;4972833;28;20206;-72
2023/07/22 02:36:03;;;;;;;0.80;0.60;;;16.40;99.90;;;;;;4961197;28;20215;-72
2023/07/22 02:38:31;;;;;;;1.23;0.90;;;16.50;99.90;;;;;;4959761;28;20673;-72
2023/07/22 02:41:05;;;;;;;0.95;0.70;;;16.50;99.90;;;;;;4963204;28;20242;-72
2023/07/22 02:43:33;;;;;;;1.00;1.00;;;16.50;99.90;;;;;;4961062;28;20217;-72
2023/07/22 02:46:02;;;;;;;0.80;0.80;;;16.60;99.90;;;;;;4972103;28;20215;-72
2023/07/22 02:48:31;;;;;;;0.90;0.85;;;16.50;99.90;;;;;;4972620;28;20213;-73
2023/07/22 02:51:05;;;;;;;0.70;0.70;;;16.50;99.90;;;;;;4992911;28;20308;-71
2023/07/22 02:53:33;;;;;;;0.70;0.63;;;16.40;99.90;;;;;;4992089;28;20221;-72
2023/07/22 02:56:01;;;;;;;0.90;0.57;;;16.30;99.90;;;;;;4991627;28;20205;-72
2023/07/22 02:58:29;;;;;;;0.90;0.70;;;16.30;99.90;;;;;;4992447;28;20380;-72
2023/07/22 03:00:58;;;;;;;1.45;0.80;;;16.30;99.90;;;;;;5002691;28;20241;-71
2023/07/22 03:03:26;;;;;;;0.90;0.90;;;16.30;99.90;;;;;;4997346;28;20206;-71
2023/07/22 03:05:54;;;;;;;1.27;0.80;;;16.40;99.90;;;;;;5007875;28;20204;-71
2023/07/22 03:08:23;;;;;;;1.00;0.68;;;16.30;99.90;;;;;;4991922;28;20213;-71
2023/07/22 03:10:51;;;;;;;0.63;0.55;;;16.30;99.90;;;;;;4991191;28;20236;-71
2023/07/22 03:13:19;;;;;;;0.60;0.60;;;16.30;99.90;;;;;;4991817;28;20688;-71
2023/07/22 03:15:47;;;;;;;1.02;0.93;;;16.30;99.90;;;;;;4992893;28;20751;-71
2023/07/22 03:18:15;;;;;;;1.40;0.85;;;16.40;99.90;;;;;;4992110;28;20284;-71
2023/07/22 03:20:43;;;;;;;2.72;1.02;;;16.40;99.90;;;;;;4991378;28;20312;-71
2023/07/22 03:23:11;;;;;;;0.90;0.60;;;16.50;99.90;;;;;;4992178;28;20221;-70
2023/07/22 03:25:41;;;;;;;1.20;0.70;;;16.40;99.90;;;;;;4992395;28;20213;-72
2023/07/22 03:28:09;;;;;;;0.88;0.80;;;16.50;99.90;;;;;;4991630;28;20212;-72
2023/07/22 03:30:37;;;;;;;0.60;0.60;;;16.50;99.90;;;;;;4991447;28;20225;-70
2023/07/22 03:33:05;;;;;;;1.13;0.75;;;16.50;99.90;;;;;;5001933;28;20230;-70
2023/07/22 03:35:34;;;;;;;0.70;0.70;;;16.30;99.90;;;;;;5011360;28;20679;-69
2023/07/22 03:38:04;;;;;;;2.13;0.85;;;16.30;99.90;;;;;;4992613;28;20210;-71
2023/07/22 03:40:33;;;;;;;0.70;0.55;;;16.30;99.90;;;;;;4992666;28;20230;-70
2023/07/22 03:43:02;;;;;;;0.90;0.60;;;16.20;99.90;;;;;;4992803;28;20213;-69
2023/07/22 03:45:30;;;;;;;0.60;0.50;;;16.20;99.90;;;;;;5003123;28;20205;-68
2023/07/22 03:47:59;;;;;;;1.10;1.00;;;16.10;99.90;;;;;;5000362;28;20556;-68
2023/07/22 03:50:28;;;;;;;1.95;0.60;;;16.10;99.90;;;;;;5123893;23;20248;-65
2023/07/22 03:52:56;;;;;;;0.60;0.50;;;16.00;99.90;;;;;;5004305;28;20748;-65
2023/07/22 03:55:24;;;;;;;1.20;0.75;;;16.00;99.90;;;;;;5003217;28;20212;-64
2023/07/22 03:57:52;;;;;;;1.40;1.10;;;16.00;99.90;;;;;;4995448;28;20248;-65
2023/07/22 04:00:22;;;;;;;0.90;0.90;;;15.90;99.90;;;;;;4995136;28;20222;-64
2023/07/22 04:02:50;;;;;;;1.00;0.90;;;15.80;99.90;;;;;;4995988;28;20202;-64
2023/07/22 04:05:18;;;;;;;1.30;0.80;;;15.80;99.90;;;;;;5006272;28;20292;-65
2023/07/22 04:07:46;;;;;;;0.85;0.82;;;15.90;99.90;;;;;;5016538;28;20225;-65
2023/07/22 04:10:14;;;;;;;0.90;0.90;;;15.80;99.90;;;;;;4995206;28;20292;-63
2023/07/22 04:12:42;;;;;;;0.93;0.93;;;15.90;99.90;;;;;;5001338;28;20283;-65
2023/07/22 04:15:11;;;;;;;1.92;1.35;;;15.90;99.90;;;;;;5005574;28;20359;-65
2023/07/22 04:17:41;;;;;;;0.93;0.93;;;15.90;99.90;;;;;;5006544;28;20288;-64
2023/07/22 04:20:10;;;;;;;0.70;0.60;;;15.90;99.90;;;;;;5005437;28;20892;-65
2023/07/22 04:22:38;;;;;;;0.90;0.90;;;15.90;99.90;;;;;;5005414;28;20691;-64
2023/07/22 04:25:07;;;;;;;1.20;1.10;;;16.00;99.90;;;;;;5005386;28;20615;-65
2023/07/22 04:27:35;;;;;;;1.38;1.05;;;16.10;99.90;;;;;;5005493;28;20217;-64
2023/07/22 04:30:03;;;;;;;0.70;0.70;;;16.10;99.90;;;;;;5004069;28;20237;-64
2023/07/22 04:32:31;;;;;;;1.88;1.02;;;16.10;99.90;;;;;;5005118;28;20231;-64
2023/07/22 04:35:01;;;;;;;2.05;1.20;;;16.20;99.90;;;;;;5004989;28;20334;-64
2023/07/22 04:37:29;;;;;;;0.82;0.63;;;16.20;99.90;;;;;;5005378;28;20217;-65
2023/07/22 04:39:57;;;;;;;1.33;1.00;;;16.30;99.90;;;;;;5003057;28;20237;-64
2023/07/22 04:42:25;;;;;;;1.58;0.82;;;16.30;99.90;;;;;;5003572;28;20202;-65
2023/07/22 04:44:53;;;;;;;1.02;0.90;;;16.40;99.90;;;;;;5003886;28;20223;-66
2023/07/22 04:47:21;;;;;;;1.08;0.98;;;16.50;99.90;;;;;;5004432;28;20213;-64
2023/07/22 04:49:49;;;;;;;1.08;0.70;;;16.50;99.90;;;;;;5003398;28;20213;-65
2023/07/22 04:52:18;;;;;;;0.88;0.60;;;16.60;99.90;;;;;;5006826;28;20228;-65
2023/07/22 04:54:47;;;;;;;0.70;0.70;;;16.70;99.90;;;;;;5005691;28;20224;-64
2023/07/22 04:57:16;;;;;;;1.05;0.95;;;16.70;99.90;;;;;;5003439;28;20220;-64
2023/07/22 04:59:44;;;;;;;1.20;1.02;;;16.70;99.90;;;;;;5003341;28;20212;-64
2023/07/22 05:02:12;;;;;;;0.80;0.50;;;16.80;99.90;;;;;;5003584;28;20209;-64
2023/07/22 05:04:40;;;;;;;0.70;0.60;;;16.80;99.90;;;;;;5005358;28;20275;-63
2023/07/22 05:07:08;;;;;;;1.00;0.90;;;16.80;99.90;;;;;;5004348;28;20221;-63
2023/07/22 05:09:38;;;;;;;1.05;1.00;;;16.80;99.90;;;;;;5002982;28;20232;-64
2023/07/22 05:12:07;;;;;;;0.70;0.60;;;16.90;99.90;;;;;;5003755;28;20224;-64
2023/07/22 05:14:35;;;;;;;0.68;0.60;;;17.00;99.90;;;;;;5004992;28;20208;-64
2023/07/22 05:17:03;;;;;;;0.60;0.50;;;17.10;99.90;;;;;;5004315;28;20228;-64
2023/07/22 05:19:31;;;;;;;1.15;0.80;;;17.20;99.90;;;;;;5002719;28;20727;-64
2023/07/22 05:21:59;;;;;;;1.23;0.85;;;17.10;99.90;;;;;;5003960;28;20232;-64
2023/07/22 05:24:27;;;;;;;0.98;0.95;;;16.80;99.90;;;;;;5005068;28;20256;-64
2023/07/22 05:26:56;;;;;;;1.00;0.80;;;16.40;99.90;;;;;;5003199;28;20213;-64
2023/07/22 05:29:36;;;;;;;1.08;0.98;;;16.20;99.90;;;;;;5003139;28;20223;-63
2023/07/22 05:32:04;;;;;;;1.02;0.90;;;16.20;99.90;;;;;;5004215;28;20221;-64
2023/07/22 05:34:40;;;;;;;0.85;0.80;;;16.30;99.90;;;;;;5005426;28;20216;-65
2023/07/22 05:37:08;;;;;;;0.70;0.70;;;16.10;99.90;;;;;;5003062;28;21123;-65
2023/07/22 05:39:36;;;;;;;1.23;1.13;;;16.10;99.90;;;;;;5003238;28;20237;-65
2023/07/22 05:42:06;;;;;;;1.25;0.82;;;16.20;99.90;;;;;;5003120;28;20752;-64
2023/07/22 05:44:35;;;;;;;0.95;0.90;;;16.10;99.90;;;;;;5004504;28;20221;-64
2023/07/22 05:47:05;;;;;;;1.35;0.90;;;16.30;99.90;;;;;;5004113;28;20212;-64
2023/07/22 05:49:33;;;;;;;1.02;0.90;;;16.40;99.90;;;;;;5002518;28;20260;-64
2023/07/22 05:52:01;;;;;;;1.27;0.88;;;16.60;99.90;;;;;;5003160;28;20856;-64
2023/07/22 05:54:29;;;;;;;2.67;1.45;;;16.70;99.90;;;;;;5001260;28;20243;-64
2023/07/22 05:56:57;;;;;;;1.10;0.70;;;17.00;99.90;;;;;;5000817;28;20962;-63
2023/07/22 05:59:26;;;;;;;1.00;0.90;;;17.10;99.90;;;;;;5001714;28;20198;-64
2023/07/22 06:01:54;;;;;;;0.70;0.63;;;17.20;99.90;;;;;;5002963;28;20243;-64
2023/07/22 06:04:22;;;;;;;0.98;0.70;;;17.30;99.90;;;;;;5003901;28;20210;-64
2023/07/22 06:06:50;;;;;;;1.55;1.27;;;17.40;99.90;;;;;;5002594;28;20683;-65
2023/07/22 06:09:20;;;;;;;0.70;0.70;;;17.50;99.90;;;;;;5000173;28;20193;-66
2023/07/22 06:11:48;;;;;;;0.80;0.80;;;17.60;99.90;;;;;;5002276;28;20228;-65
2023/07/22 06:14:17;;;;;;;2.13;1.40;;;17.70;99.90;;;;;;5003317;28;20742;-65
2023/07/22 06:16:47;;;;;;;1.00;1.00;;;17.70;99.90;;;;;;5003689;28;20217;-65
2023/07/22 06:19:15;;;;;;;1.88;1.75;;;17.80;99.90;;;;;;5002304;28;20759;-66
2023/07/22 06:21:44;;;;;;;1.00;0.60;;;17.80;99.90;;;;;;5003803;28;20263;-65
2023/07/22 06:24:12;;;;;;;0.88;0.88;;;18.00;99.90;;;;;;5003132;28;20209;-65
2023/07/22 06:26:40;;;;;;;1.08;0.80;;;18.10;99.90;;;;;;5003791;28;20209;-66
2023/07/22 06:29:08;;;;;;;0.98;0.68;;;18.20;99.90;;;;;;5002005;28;20219;-65
2023/07/22 06:31:36;;;;;;;1.10;1.00;;;18.40;99.90;;;;;;5003853;28;20320;-65
2023/07/22 06:34:05;;;;;;;0.90;0.90;;;18.40;99.90;;;;;;5009265;28;20263;-68
2023/07/22 06:36:33;;;;;;;0.90;0.70;;;18.40;99.90;;;;;;5006286;28;20553;-68
2023/07/22 06:39:01;;;;;;;0.70;0.50;;;18.40;99.90;;;;;;5001205;28;20216;-66
2023/07/22 06:41:29;;;;;;;0.60;0.50;;;18.50;99.90;;;;;;5001870;28;20593;-68
2023/07/22 06:43:57;;;;;;;0.63;0.57;;;18.50;99.90;;;;;;4993245;28;20611;-67
2023/07/22 06:46:25;;;;;;;0.73;0.57;;;18.50;99.90;;;;;;4989853;28;20202;-68
2023/07/22 06:48:53;;;;;;;1.08;0.77;;;18.50;99.90;;;;;;4990292;28;20212;-68
2023/07/22 06:51:23;;;;;;;1.20;1.10;;;18.50;99.90;;;;;;4989945;28;20296;-68
2023/07/22 06:53:51;;;;;;;0.80;0.60;;;18.60;99.90;;;;;;4990330;28;20241;-67
2023/07/22 06:56:19;;;;;;;1.05;0.95;;;18.40;99.90;;;;;;4990697;28;20217;-68
2023/07/22 06:58:47;;;;;;;0.80;0.77;;;18.30;99.90;;;;;;4991977;28;20209;-66
2023/07/22 07:01:14;;;;;;;1.45;1.15;;;18.30;99.90;;;;;;4999784;28;20226;-68
2023/07/22 07:03:42;;;;;;;0.80;0.73;;;18.30;99.90;;;;;;5000660;28;20644;-68
2023/07/22 07:06:10;;;;;;;1.48;1.35;;;18.40;99.90;;;;;;5008613;28;20208;-67
2023/07/22 07:08:40;;;;;;;1.10;0.98;;;18.40;99.90;;;;;;5006790;28;20205;-68
2023/07/22 07:11:08;;;;;;;0.95;0.73;;;18.40;99.90;;;;;;4991635;28;20778;-68
2023/07/22 07:13:36;;;;;;;0.70;0.50;;;18.30;99.90;;;;;;4991749;28;20305;-68
2023/07/22 07:16:22;;;;;;;0.93;0.90;;;18.40;99.90;;;;;;4991587;28;20220;-68
2023/07/22 07:18:50;;;;;;;0.77;0.77;;;18.40;99.90;;;;;;4991985;28;20206;-68
2023/07/22 07:21:18;;;;;;;0.80;0.60;;;18.50;99.90;;;;;;5007160;28;20228;-68
2023/07/22 07:23:48;;;;;;;1.73;1.60;;;18.50;99.90;;;;;;4991553;28;20580;-68
2023/07/22 07:26:18;;;;;;;1.08;0.98;;;18.60;99.90;;;;;;4973781;28;20665;-68
2023/07/22 07:28:47;;;;;;;0.68;0.60;;;18.70;99.90;;;;;;4992759;28;20211;-68
2023/07/22 07:31:15;;;;;;;1.25;1.05;;;18.80;99.90;;;;;;4991317;28;20234;-68
2023/07/22 07:33:43;;;;;;;0.70;0.60;;;19.00;99.90;;;;;;5000414;28;20310;-67
2023/07/22 07:36:11;;;;;;;1.17;1.10;;;19.20;99.90;;;;;;5001734;28;20688;-68
2023/07/22 07:38:39;;;;;;;0.70;0.70;;;19.50;99.90;;;;;;4991613;28;20211;-68
2023/07/22 07:41:11;;;;;;;0.80;0.70;;;19.70;99.90;;;;;;4998610;28;20279;-67
2023/07/22 07:43:39;;;;;;;0.80;0.70;;;19.80;99.90;;;;;;4991649;28;20050;-68
2023/07/22 07:46:14;;;;;;;0.80;0.70;;;20.00;99.90;;;;;;4991169;28;20210;-67
2023/07/22 07:48:43;;;;;;;1.25;1.15;;;20.20;99.90;;;;;;4991588;28;20225;-70
2023/07/22 07:51:11;;;;;;;0.70;0.70;;;20.40;99.90;;;;;;4991190;28;20710;-67
2023/07/22 07:53:39;;;;;;;;;;;20.50;99.90;;;;;;4992197;28;20391;-69
2023/07/22 07:56:09;;;;;;;;;;;20.60;99.90;;;;;;4978800;28;20032;-68
2023/07/22 07:58:37;;;;;;;;;;;20.80;99.90;;;;;;4991944;28;19976;-69
2023/07/22 08:01:05;;;;;;;;;;;20.90;99.90;;;;;;4992240;28;20429;-68
2023/07/22 08:03:34;;;;;;;;;;;20.90;99.90;;;;;;4997623;28;19980;-68
2023/07/22 08:06:02;;;;;;;;;;;20.70;99.90;;;;;;5009196;28;19970;-68
2023/07/22 08:08:30;;;;;;;;;;;20.60;99.90;;;;;;4992154;28;19964;-68
2023/07/22 08:11:00;;;;;;;0.70;0.70;;;20.60;99.90;;;;;;4991405;28;19963;-67
2023/07/22 08:13:31;;;;;;;1.10;1.00;;;20.70;99.90;;;;;;4991012;28;20210;-67
2023/07/22 08:15:59;;;;;;;0.68;0.65;;;20.80;99.90;;;;;;4991051;28;20601;-68
2023/07/22 08:18:27;;;;;;;1.05;0.60;;;21.00;99.90;;;;;;4991065;28;20211;-68
2023/07/22 08:20:58;;;;;;;1.08;1.08;;;21.20;99.90;;;;;;4996339;28;20660;-67
2023/07/22 08:23:26;;;;;;;0.70;0.60;;;21.40;99.90;;;;;;4991024;28;20206;-67
2023/07/22 08:25:54;;;;;;;0.60;0.50;;;21.60;99.90;;;;;;4990966;28;20211;-67
2023/07/22 08:28:22;;;;;;;0.70;0.60;;;21.70;99.90;;;;;;4991110;28;20217;-68
2023/07/22 08:30:55;;;;;;;0.70;0.60;;;21.80;99.90;;;;;;4991125;28;20238;-68
2023/07/22 08:33:24;;;;;;;1.10;1.00;;;22.00;99.90;;;;;;4997061;28;20218;-68
2023/07/22 08:36:07;;;;;;;1.00;0.93;;;22.20;99.90;;;;;;5011659;28;20233;-68
2023/07/22 08:38:35;;;;;;;1.10;0.68;;;22.30;99.90;;;;;;5002458;28;20238;-67
2023/07/22 08:41:03;;;;;;;1.20;1.10;;;22.30;99.90;;;;;;5000722;28;20227;-68
2023/07/22 08:43:34;;;;;;;0.60;0.50;;;22.60;99.90;;;;;;4995133;28;20558;-68
2023/07/22 08:46:07;;;;;;;1.08;0.98;;;22.60;99.90;;;;;;4994407;28;20209;-67
2023/07/22 08:48:37;;;;;;;0.60;0.60;;;22.80;99.90;;;;;;4994634;28;20627;-68
2023/07/22 08:51:11;;;;;;;1.00;0.73;;;22.80;99.90;;;;;;4994126;28;20618;-66
2023/07/22 08:53:38;;;;;;;0.75;0.70;;;23.00;99.90;;;;;;4994426;28;20218;-67
2023/07/22 08:56:07;;;;;;;0.90;0.70;;;23.20;99.90;;;;;;5000671;28;20231;-67
2023/07/22 08:58:36;;;;;;;1.90;1.27;;;23.30;99.90;;;;;;4993917;28;20308;-68
2023/07/22 09:01:06;;;;;;;0.98;0.75;;;23.50;99.90;;;;;;4994221;28;20235;-67
2023/07/22 09:03:34;;;;;;;0.60;0.50;;;23.70;99.90;;;;;;5001505;28;20855;-68
2023/07/22 09:06:05;;;;;;;0.70;0.68;;;24.10;99.90;;;;;;5013442;28;20207;-67
2023/07/22 09:08:34;;;;;;;0.80;0.77;;;24.30;99.90;;;;;;5002758;28;20207;-68
2023/07/22 09:11:02;;;;;;;1.08;0.80;;;24.50;99.90;;;;;;4995072;28;20270;-69
2023/07/22 09:13:31;;;;;;;0.85;0.70;;;24.60;99.90;;;;;;4993920;28;20200;-68
2023/07/22 09:16:00;;;;;;;0.80;0.70;;;24.60;99.00;;;;;;4993717;28;20224;-68
2023/07/22 09:18:29;;;;;;;0.60;0.40;;;24.60;99.80;;;;;;4993681;28;20213;-68
2023/07/22 09:20:57;;;;;;;0.60;0.50;;;24.40;99.10;;;;;;4993665;28;20631;-68
2023/07/22 09:23:35;;;;;;;0.68;0.60;;;24.10;99.80;;;;;;4993640;28;20203;-68
2023/07/22 09:26:10;;;;;;;0.70;0.60;;;24.00;99.90;;;;;;4994714;28;20578;-68
2023/07/22 09:28:52;;;;;;;0.70;0.70;;;23.80;99.90;;;;;;4993276;28;20202;-68
2023/07/22 09:31:21;;;;;;;0.60;0.47;;;24.00;99.90;;;;;;5001579;28;20269;-67
2023/07/22 09:33:53;;;;;;;0.77;0.60;;;24.00;99.90;;;;;;5003377;28;20916;-67
2023/07/22 09:36:22;;;;;;;0.93;0.70;;;24.00;99.80;;;;;;5012767;28;20246;-68
2023/07/22 09:39:00;;;;;;;1.42;0.77;;;23.70;99.90;;;;;;5000348;28;20234;-68
2023/07/22 09:41:29;;;;;;;0.70;0.60;;;23.30;99.90;;;;;;4993350;28;20292;-68
2023/07/22 09:43:57;;;;;;;0.70;0.52;;;23.40;99.90;;;;;;4993461;28;20210;-68
2023/07/22 09:46:32;;;;;;;0.60;0.60;;;23.30;99.90;;;;;;4996402;28;20670;-68
2023/07/22 09:49:05;;;;;;;0.98;0.70;;;23.10;99.90;;;;;;4998611;28;20201;-68
2023/07/22 09:51:35;;;;;;;0.90;0.90;;;23.20;99.90;;;;;;5027875;23;20269;-68
2023/07/22 09:54:20;;;;;;;0.82;0.52;;;23.30;99.90;;;;;;5032014;28;20205;-68
2023/07/22 09:56:50;;;;;;;1.10;0.80;;;23.80;99.20;;;;;;5032315;28;20227;-66
2023/07/22 09:59:20;;;;;;;0.93;0.73;;;23.90;99.50;;;;;;5032542;28;20235;-68
2023/07/22 10:01:49;;;;;;;0.70;0.60;;;24.40;99.90;;;;;;5028394;28;20231;-69
2023/07/22 10:04:22;;;;;;;0.70;0.70;;;24.40;99.00;;;;;;5045068;28;20213;-68
2023/07/22 10:06:51;;;;;;;0.82;0.82;;;24.70;98.40;;;;;;5044576;28;20197;-68
2023/07/22 10:09:20;;;;;;;0.73;0.73;;;24.60;97.60;;;;;;5035754;28;20206;-66
2023/07/22 10:11:48;;;;;;;0.60;0.47;;;24.50;96.80;;;;;;5032294;28;20231;-68
2023/07/22 10:14:18;;;;;;;1.00;0.68;;;24.20;97.40;;;;;;5032167;28;20665;-68
2023/07/22 10:16:46;;;;;;;0.60;0.50;;;24.30;97.90;;;;;;5032077;28;20218;-68
2023/07/22 10:19:15;;;;;;;0.70;0.55;;;24.10;97.40;;;;;;5031948;28;20269;-68
2023/07/22 10:21:45;;;;;;;0.95;0.65;;;23.90;97.60;;;;;;5032041;28;20229;-68
2023/07/22 10:24:14;;;;;;;0.90;0.82;;;23.80;96.40;;;;;;5032179;28;20256;-68
2023/07/22 10:26:42;;;;;;;0.60;0.40;;;24.10;96.40;;;;;;5031705;28;20206;-68
2023/07/22 10:29:14;;;;;;;0.80;0.70;;;24.60;95.10;;;;;;5031876;28;20284;-68
2023/07/22 10:31:43;;;;;;;0.90;0.70;;;24.90;94.40;;;;;;5031755;28;20227;-67
2023/07/22 10:34:11;;;;;;;0.60;0.40;;;25.30;92.80;;;;;;5046832;28;20831;-68
2023/07/22 10:36:39;;;;;;;0.70;0.60;;;25.70;92.90;;;;;;5051419;28;20284;-67
2023/07/22 10:39:08;;;;;;;0.75;0.50;;;26.00;92.50;;;;;;5037024;28;20626;-68
2023/07/22 10:41:39;;;;;;;0.85;0.82;;;26.10;92.50;;;;;;5031530;28;20236;-68
2023/07/22 10:44:12;;;;;;;0.90;0.68;;;26.20;91.20;;;;;;5031747;28;20203;-68
2023/07/22 10:46:43;;;;;;;0.95;0.60;;;25.80;91.20;;;;;;5032618;28;20937;-68
2023/07/22 10:49:12;;;;;;;0.60;0.60;;;25.80;91.10;;;;;;5042994;28;20264;-66
2023/07/22 10:51:41;;;;;;;0.68;0.60;;;25.80;91.10;;;;;;5032250;28;20234;-68
2023/07/22 10:54:14;;;;;;;0.60;0.52;;;25.80;91.60;;;;;;5031567;28;20677;-66
2023/07/22 10:56:44;;;;;;;0.70;0.50;;;25.90;91.40;;;;;;5030927;28;20233;-69
2023/07/22 10:59:12;;;;;;;1.33;0.70;;;26.10;92.10;;;;;;5030714;28;20210;-68
2023/07/22 11:01:44;;;;;;;1.52;1.42;;;25.90;91.10;;;;;;5031351;28;20599;-68
2023/07/22 11:04:30;;;;;;;1.13;0.77;;;25.80;91.40;;;;;;5048736;28;20210;-68
2023/07/22 11:07:10;;;;;;;0.70;0.65;;;25.80;91.40;;;;;;5045585;28;20279;-67
2023/07/22 11:09:43;;;;;;;0.70;0.60;;;25.50;91.30;;;;;;5032460;28;20202;-68
2023/07/22 11:12:17;;;;;;;0.60;0.50;;;25.50;91.50;;;;;;5037592;28;20280;-68
2023/07/22 11:14:50;;;;;;;0.70;0.60;;;25.50;91.80;;;;;;5031741;28;20206;-68
2023/07/22 11:17:19;;;;;;;0.70;0.50;;;25.20;91.40;;;;;;5030830;28;20233;-68
2023/07/22 11:19:49;;;;;;;0.73;0.73;;;24.80;91.80;;;;;;5030949;28;20202;-68
2023/07/22 11:22:17;;;;;;;1.00;0.70;;;24.70;92.30;;;;;;5031197;28;20237;-68
2023/07/22 11:24:46;;;;;;;0.90;0.70;;;24.70;92.70;;;;;;5030951;28;20334;-67
2023/07/22 11:27:15;;;;;;;0.77;0.63;;;24.60;92.80;;;;;;5030713;28;20209;-68
2023/07/22 11:29:43;;;;;;;1.67;0.50;;;24.40;93.10;;;;;;5043009;28;20213;-66
2023/07/22 11:32:17;;;;;;;0.60;0.50;;;24.40;93.50;;;;;;5047999;28;20229;-67
2023/07/22 11:34:45;;;;;;;1.55;0.93;;;24.40;93.20;;;;;;5041513;28;20231;-68
2023/07/22 11:37:14;;;;;;;0.90;0.85;;;24.40;93.60;;;;;;5044885;28;20289;-67
2023/07/22 11:39:44;;;;;;;0.68;0.60;;;24.50;93.60;;;;;;5046262;28;20202;-67
2023/07/22 11:42:13;;;;;;;0.70;0.60;;;24.90;93.10;;;;;;5045985;28;20234;-68
2023/07/22 11:44:42;;;;;;;0.60;0.40;;;25.10;93.40;;;;;;5040988;28;20229;-68
2023/07/22 11:47:11;;;;;;;0.70;0.70;;;25.00;93.10;;;;;;5046707;28;20605;-67
2023/07/22 11:49:41;;;;;;;0.85;0.60;;;24.90;93.00;;;;;;5046315;28;20216;-67
2023/07/22 11:52:10;;;;;;;1.35;0.80;;;25.00;92.60;;;;;;5042492;28;20712;-68
2023/07/22 11:54:40;;;;;;;0.80;0.80;;;24.90;93.00;;;;;;5046069;28;20218;-68
2023/07/22 11:57:14;;;;;;;0.80;0.70;;;24.80;93.00;;;;;;5043209;28;20590;-67
2023/07/22 11:59:45;;;;;;;0.82;0.80;;;24.60;92.60;;;;;;5044486;28;20213;-68
2023/07/22 12:02:14;;;;;;;0.80;0.80;;;24.50;93.00;;;;;;5041474;28;20768;-67
2023/07/22 12:04:42;;;;;;;2.08;0.80;;;24.40;93.10;;;;;;5044360;28;20206;-68
2023/07/22 12:07:23;;;;;;;0.68;0.57;;;24.40;93.30;;;;;;5045721;28;20198;-67
2023/07/22 12:09:52;;;;;;;0.60;0.50;;;24.30;93.00;;;;;;5046943;28;20885;-68
2023/07/22 12:12:21;;;;;;;0.60;0.50;;;24.20;93.00;;;;;;5047643;28;20236;-67
2023/07/22 12:14:50;;;;;;;0.70;0.60;;;24.10;93.10;;;;;;5046428;28;20197;-67
2023/07/22 12:17:18;;;;;;;0.65;0.55;;;24.10;94.40;;;;;;5048190;28;20229;-67
2023/07/22 12:19:52;;;;;;;0.70;0.65;;;24.50;93.50;;;;;;5050379;28;20205;-67
2023/07/22 12:22:22;;;;;;;0.82;0.50;;;25.10;93.30;;;;;;5046634;28;20228;-67
2023/07/22 12:24:50;;;;;;;0.60;0.50;;;25.30;92.30;;;;;;5045705;28;20209;-68
2023/07/22 12:27:18;;;;;;;0.60;0.50;;;25.50;91.60;;;;;;5049831;28;20198;-67
2023/07/22 12:29:47;;;;;;;0.60;0.40;;;25.50;91.10;;;;;;5050862;28;20221;-68
2023/07/22 12:32:15;;;;;;;1.13;0.60;;;25.20;91.70;;;;;;5042607;28;20250;-67
2023/07/22 12:34:43;;;;;;;0.88;0.60;;;25.30;92.20;;;;;;5046955;28;20606;-68
2023/07/22 12:37:11;;;;;;;0.95;0.85;;;25.30;92.50;;;;;;5046602;28;20682;-68
2023/07/22 12:39:39;;;;;;;0.82;0.70;;;25.30;91.40;;;;;;5050564;28;20292;-67
2023/07/22 12:42:08;;;;;;;0.60;0.50;;;25.20;92.10;;;;;;5044421;28;20226;-68
2023/07/22 12:44:36;;;;;;;0.70;0.50;;;25.20;92.00;;;;;;5049145;28;20214;-67
2023/07/22 12:47:06;;;;;;;0.70;0.68;;;24.90;91.30;;;;;;5046106;28;20588;-68
2023/07/22 12:49:34;;;;;;;1.33;0.60;;;25.00;91.40;;;;;;5049311;28;20222;-68
2023/07/22 12:52:04;;;;;;;0.93;0.65;;;25.10;91.50;;;;;;5045855;28;20711;-67
2023/07/22 12:54:32;;;;;;;0.60;0.40;;;25.10;91.30;;;;;;5044466;28;20324;-68
2023/07/22 12:57:00;;;;;;;0.70;0.50;;;25.10;91.40;;;;;;5047773;28;20301;-67
2023/07/22 12:59:28;;;;;;;0.70;0.70;;;25.00;91.10;;;;;;5050663;28;20205;-68